sensor_id;sensor_type;location;lat;lon;timestamp;pressure;altitude;pressure_sealevel;temperature;humidity
42289;BME280;30230;47.520;19.016;2023-06-26T00:01:57;98973.69;;;18.44;86.44
42289;BME280;30230;47.520;19.016;2023-06-26T00:03:58;98967.13;;;18.40;87.50
42289;BME280;30230;47.520;19.016;2023-06-26T00:05:58;98967.91;;;18.36;87.86
42289;BME280;30230;47.520;19.016;2023-06-26T00:08:00;98968.69;;;18.31;88.77
42289;BME280;30230;47.520;19.016;2023-06-26T00:10:01;98969.19;;;18.28;87.88
42289;BME280;30230;47.520;19.016;2023-06-26T00:12:02;98963.97;;;18.21;89.49
42289;BME280;30230;47.520;19.016;2023-06-26T00:14:03;98967.47;;;18.17;90.33
42289;BME280;30230;47.520;19.016;2023-06-26T00:16:03;98970.72;;;18.14;90.30
42289;BME280;30230;47.520;19.016;2023-06-26T00:18:04;98972.34;;;18.10;90.80
42289;BME280;30230;47.520;19.016;2023-06-26T00:20:05;98965.75;;;18.06;90.96
42289;BME280;30230;47.520;19.016;2023-06-26T00:22:05;98962.44;;;18.04;88.18
42289;BME280;30230;47.520;19.016;2023-06-26T00:24:05;98963.28;;;18.04;88.57
42289;BME280;30230;47.520;19.016;2023-06-26T00:26:06;98963.50;;;18.03;89.50
42289;BME280;30230;47.520;19.016;2023-06-26T00:28:06;98969.25;;;18.01;89.23
42289;BME280;30230;47.520;19.016;2023-06-26T00:30:07;98968.44;;;18.01;88.95
42289;BME280;30230;47.520;19.016;2023-06-26T00:32:08;98968.44;;;18.01;89.74
42289;BME280;30230;47.520;19.016;2023-06-26T00:34:08;98979.03;;;17.97;90.62
42289;BME280;30230;47.520;19.016;2023-06-26T00:36:08;98978.22;;;17.96;89.22
42289;BME280;30230;47.520;19.016;2023-06-26T00:38:08;98978.50;;;17.95;91.23
42289;BME280;30230;47.520;19.016;2023-06-26T00:40:09;98977.91;;;17.93;92.40
42289;BME280;30230;47.520;19.016;2023-06-26T00:42:09;98981.16;;;17.90;92.75
42289;BME280;30230;47.520;19.016;2023-06-26T00:44:10;98975.94;;;17.83;94.82
42289;BME280;30230;47.520;19.016;2023-06-26T00:46:11;98978.03;;;17.76;94.36
42289;BME280;30230;47.520;19.016;2023-06-26T00:48:12;98980.19;;;17.74;94.08
42289;BME280;30230;47.520;19.016;2023-06-26T00:50:12;98984.47;;;17.70;95.91
42289;BME280;30230;47.520;19.016;2023-06-26T00:52:13;98965.56;;;17.63;96.12
42289;BME280;30230;47.520;19.016;2023-06-26T00:54:13;98974.78;;;17.57;95.00
42289;BME280;30230;47.520;19.016;2023-06-26T00:56:20;98970.41;;;17.56;96.35
42289;BME280;30230;47.520;19.016;2023-06-26T00:58:21;98966.84;;;17.56;96.25
42289;BME280;30230;47.520;19.016;2023-06-26T01:00:22;98967.88;;;17.50;94.64
42289;BME280;30230;47.520;19.016;2023-06-26T01:02:22;98966.72;;;17.45;93.65
42289;BME280;30230;47.520;19.016;2023-06-26T01:04:22;98959.28;;;17.63;93.40
42289;BME280;30230;47.520;19.016;2023-06-26T01:06:27;98964.16;;;17.61;94.89
42289;BME280;30230;47.520;19.016;2023-06-26T01:08:29;98963.22;;;17.50;95.17
42289;BME280;30230;47.520;19.016;2023-06-26T01:10:30;98959.69;;;17.50;94.69
42289;BME280;30230;47.520;19.016;2023-06-26T01:12:31;98961.91;;;17.53;94.27
42289;BME280;30230;47.520;19.016;2023-06-26T01:14:33;98959.69;;;17.50;93.74
42289;BME280;30230;47.520;19.016;2023-06-26T01:16:34;98958.81;;;17.44;93.05
42289;BME280;30230;47.520;19.016;2023-06-26T01:18:35;98950.59;;;17.44;93.56
42289;BME280;30230;47.520;19.016;2023-06-26T01:20:36;98953.34;;;17.44;94.13
42289;BME280;30230;47.520;19.016;2023-06-26T01:22:45;98956.63;;;17.46;95.18
42289;BME280;30230;47.520;19.016;2023-06-26T01:24:53;98951.69;;;17.43;96.21
42289;BME280;30230;47.520;19.016;2023-06-26T01:26:54;98954.09;;;17.39;94.20
42289;BME280;30230;47.520;19.016;2023-06-26T01:28:54;98946.47;;;17.41;93.40
42289;BME280;30230;47.520;19.016;2023-06-26T01:30:56;98938.28;;;17.41;93.53
42289;BME280;30230;47.520;19.016;2023-06-26T01:32:56;98950.88;;;17.42;92.36
42289;BME280;30230;47.520;19.016;2023-06-26T01:34:57;98943.78;;;17.47;91.93
42289;BME280;30230;47.520;19.016;2023-06-26T01:36:57;98938.91;;;17.49;92.71
42289;BME280;30230;47.520;19.016;2023-06-26T01:38:58;98946.53;;;17.47;90.74
42289;BME280;30230;47.520;19.016;2023-06-26T01:40:58;98939.13;;;17.42;90.14
42289;BME280;30230;47.520;19.016;2023-06-26T01:42:58;98935.53;;;17.41;89.97
42289;BME280;30230;47.520;19.016;2023-06-26T01:45:04;98933.91;;;17.40;90.59
42289;BME280;30230;47.520;19.016;2023-06-26T01:47:05;98934.66;;;17.36;90.88
42289;BME280;30230;47.520;19.016;2023-06-26T01:49:15;98938.81;;;17.38;90.83
42289;BME280;30230;47.520;19.016;2023-06-26T01:51:18;98937.66;;;17.34;90.52
42289;BME280;30230;47.520;19.016;2023-06-26T01:53:24;98942.81;;;17.31;90.43
42289;BME280;30230;47.520;19.016;2023-06-26T01:55:34;98945.53;;;17.31;90.84
42289;BME280;30230;47.520;19.016;2023-06-26T01:57:38;98945.78;;;17.29;90.58
42289;BME280;30230;47.520;19.016;2023-06-26T01:59:39;98936.47;;;17.25;91.01
42289;BME280;30230;47.520;19.016;2023-06-26T02:01:40;98939.72;;;17.22;91.52
42289;BME280;30230;47.520;19.016;2023-06-26T02:03:40;98938.84;;;17.16;92.09
42289;BME280;30230;47.520;19.016;2023-06-26T02:05:41;98936.88;;;17.12;91.54
42289;BME280;30230;47.520;19.016;2023-06-26T02:07:41;98940.91;;;17.09;93.13
42289;BME280;30230;47.520;19.016;2023-06-26T02:09:41;98935.97;;;17.06;95.11
42289;BME280;30230;47.520;19.016;2023-06-26T02:11:42;98944.66;;;17.03;93.24
42289;BME280;30230;47.520;19.016;2023-06-26T02:13:42;98943.28;;;17.01;94.10
42289;BME280;30230;47.520;19.016;2023-06-26T02:15:42;98939.13;;;16.98;94.76
42289;BME280;30230;47.520;19.016;2023-06-26T02:17:43;98946.91;;;17.06;94.79
42289;BME280;30230;47.520;19.016;2023-06-26T02:19:43;98940.09;;;17.09;93.98
42289;BME280;30230;47.520;19.016;2023-06-26T02:21:48;98949.84;;;17.05;96.09
42289;BME280;30230;47.520;19.016;2023-06-26T02:23:49;98949.03;;;17.04;94.70
42289;BME280;30230;47.520;19.016;2023-06-26T02:25:49;98955.00;;;17.01;96.36
42289;BME280;30230;47.520;19.016;2023-06-26T02:27:49;98960.16;;;16.98;95.44
42289;BME280;30230;47.520;19.016;2023-06-26T02:29:49;98945.41;;;16.99;96.26
42289;BME280;30230;47.520;19.016;2023-06-26T02:31:50;98963.44;;;17.00;95.27
42289;BME280;30230;47.520;19.016;2023-06-26T02:33:50;98960.16;;;16.98;95.50
42289;BME280;30230;47.520;19.016;2023-06-26T02:35:50;98968.75;;;16.89;96.30
42289;BME280;30230;47.520;19.016;2023-06-26T02:37:51;98960.81;;;16.88;97.52
42289;BME280;30230;47.520;19.016;2023-06-26T02:39:51;98957.28;;;16.87;97.67
42289;BME280;30230;47.520;19.016;2023-06-26T02:41:51;98966.53;;;16.86;98.37
42289;BME280;30230;47.520;19.016;2023-06-26T02:43:52;98962.59;;;16.77;97.59
42289;BME280;30230;47.520;19.016;2023-06-26T02:45:52;98969.88;;;16.72;99.10
42289;BME280;30230;47.520;19.016;2023-06-26T02:47:52;98962.97;;;16.69;100.00
42289;BME280;30230;47.520;19.016;2023-06-26T02:49:52;98975.78;;;16.68;100.00
42289;BME280;30230;47.520;19.016;2023-06-26T02:51:52;98967.88;;;16.67;100.00
42289;BME280;30230;47.520;19.016;2023-06-26T02:53:53;98975.56;;;16.70;100.00
42289;BME280;30230;47.520;19.016;2023-06-26T02:55:53;98975.56;;;16.70;100.00
42289;BME280;30230;47.520;19.016;2023-06-26T02:57:53;98976.31;;;16.65;100.00
42289;BME280;30230;47.520;19.016;2023-06-26T02:59:53;98974.06;;;16.62;100.00
42289;BME280;30230;47.520;19.016;2023-06-26T03:01:54;98970.53;;;16.62;100.00
42289;BME280;30230;47.520;19.016;2023-06-26T03:03:54;98979.78;;;16.61;100.00
42289;BME280;30230;47.520;19.016;2023-06-26T03:05:54;98971.84;;;16.59;100.00
42289;BME280;30230;47.520;19.016;2023-06-26T03:07:55;98976.53;;;16.64;100.00
42289;BME280;30230;47.520;19.016;2023-06-26T03:09:55;98978.69;;;16.62;100.00
42289;BME280;30230;47.520;19.016;2023-06-26T03:11:55;98976.16;;;16.72;100.00
42289;BME280;30230;47.520;19.016;2023-06-26T03:13:56;98980.19;;;16.70;100.00
42289;BME280;30230;47.520;19.016;2023-06-26T03:15:56;98977.31;;;16.76;100.00
42289;BME280;30230;47.520;19.016;2023-06-26T03:17:57;98985.78;;;16.80;100.00
42289;BME280;30230;47.520;19.016;2023-06-26T03:19:57;98970.78;;;16.77;100.00
42289;BME280;30230;47.520;19.016;2023-06-26T03:21:57;98981.84;;;16.87;100.00
42289;BME280;30230;47.520;19.016;2023-06-26T03:23:58;98977.94;;;16.83;100.00
42289;BME280;30230;47.520;19.016;2023-06-26T03:25:58;98983.41;;;16.83;100.00
42289;BME280;30230;47.520;19.016;2023-06-26T03:27:58;98990.94;;;16.76;100.00
42289;BME280;30230;47.520;19.016;2023-06-26T03:29:58;98987.97;;;16.78;100.00
42289;BME280;30230;47.520;19.016;2023-06-26T03:31:59;98988.28;;;16.81;100.00
42289;BME280;30230;47.520;19.016;2023-06-26T03:33:59;98975.22;;;16.83;100.00
42289;BME280;30230;47.520;19.016;2023-06-26T03:35:59;98978.47;;;16.80;100.00
42289;BME280;30230;47.520;19.016;2023-06-26T03:38:00;98985.22;;;16.78;100.00
42289;BME280;30230;47.520;19.016;2023-06-26T03:40:01;98982.31;;;16.84;100.00
42289;BME280;30230;47.520;19.016;2023-06-26T03:42:01;98979.53;;;16.79;100.00
42289;BME280;30230;47.520;19.016;2023-06-26T03:44:01;98980.53;;;16.73;100.00
42289;BME280;30230;47.520;19.016;2023-06-26T03:46:03;98976.56;;;16.81;100.00
42289;BME280;30230;47.520;19.016;2023-06-26T03:48:03;98988.53;;;16.80;100.00
42289;BME280;30230;47.520;19.016;2023-06-26T03:50:03;98982.50;;;16.78;100.00
42289;BME280;30230;47.520;19.016;2023-06-26T03:52:04;98986.13;;;16.83;100.00
42289;BME280;30230;47.520;19.016;2023-06-26T03:54:04;98986.88;;;16.79;100.00
42289;BME280;30230;47.520;19.016;2023-06-26T03:56:04;98986.81;;;16.74;100.00
42289;BME280;30230;47.520;19.016;2023-06-26T03:58:05;98988.47;;;16.75;100.00
42289;BME280;30230;47.520;19.016;2023-06-26T04:00:05;98990.19;;;16.81;100.00
42289;BME280;30230;47.520;19.016;2023-06-26T04:02:08;98987.53;;;16.86;99.11
42289;BME280;30230;47.520;19.016;2023-06-26T04:04:08;98982.66;;;16.88;98.75
42289;BME280;30230;47.520;19.016;2023-06-26T04:06:09;98992.06;;;16.97;97.97
42289;BME280;30230;47.520;19.016;2023-06-26T04:08:09;98986.09;;;17.00;98.06
42289;BME280;30230;47.520;19.016;2023-06-26T04:10:09;98984.44;;;16.99;98.05
42289;BME280;30230;47.520;19.016;2023-06-26T04:12:10;98988.06;;;17.05;96.55
42289;BME280;30230;47.520;19.016;2023-06-26T04:14:10;98986.53;;;17.14;96.14
42289;BME280;30230;47.520;19.016;2023-06-26T04:16:11;98988.25;;;17.20;95.54
42289;BME280;30230;47.520;19.016;2023-06-26T04:18:12;98988.84;;;17.22;95.20
42289;BME280;30230;47.520;19.016;2023-06-26T04:20:12;98992.75;;;17.31;94.60
42289;BME280;30230;47.520;19.016;2023-06-26T04:22:13;98992.25;;;17.34;95.04
42289;BME280;30230;47.520;19.016;2023-06-26T04:24:13;98998.06;;;17.38;95.86
42289;BME280;30230;47.520;19.016;2023-06-26T04:26:13;98992.88;;;17.41;95.97
42289;BME280;30230;47.520;19.016;2023-06-26T04:28:14;98990.47;;;17.45;96.58
42289;BME280;30230;47.520;19.016;2023-06-26T04:30:14;98988.91;;;17.49;97.18
42289;BME280;30230;47.520;19.016;2023-06-26T04:32:15;98994.69;;;17.53;97.38
42289;BME280;30230;47.520;19.016;2023-06-26T04:34:15;98989.50;;;17.56;97.77
42289;BME280;30230;47.520;19.016;2023-06-26T04:36:16;98980.81;;;17.59;97.92
42289;BME280;30230;47.520;19.016;2023-06-26T04:38:16;98986.06;;;17.66;97.99
42289;BME280;30230;47.520;19.016;2023-06-26T04:40:16;98984.47;;;17.70;98.35
42289;BME280;30230;47.520;19.016;2023-06-26T04:42:17;98992.50;;;17.77;99.68
42289;BME280;30230;47.520;19.016;2023-06-26T04:44:18;98994.19;;;17.83;100.00
42289;BME280;30230;47.520;19.016;2023-06-26T04:46:19;98994.00;;;17.89;99.67
42289;BME280;30230;47.520;19.016;2023-06-26T04:48:19;99002.31;;;18.00;99.25
42289;BME280;30230;47.520;19.016;2023-06-26T04:50:19;98996.63;;;18.06;98.94
42289;BME280;30230;47.520;19.016;2023-06-26T04:52:20;98998.06;;;18.14;98.77
42289;BME280;30230;47.520;19.016;2023-06-26T04:54:20;98994.81;;;18.17;100.00
42289;BME280;30230;47.520;19.016;2023-06-26T04:56:20;98999.22;;;18.23;100.00
42289;BME280;30230;47.520;19.016;2023-06-26T04:58:20;98993.81;;;18.28;99.34
42289;BME280;30230;47.520;19.016;2023-06-26T05:00:21;98988.97;;;18.35;96.78
42289;BME280;30230;47.520;19.016;2023-06-26T05:02:21;98992.28;;;18.42;95.62
42289;BME280;30230;47.520;19.016;2023-06-26T05:04:21;99000.03;;;18.51;95.88
42289;BME280;30230;47.520;19.016;2023-06-26T05:06:22;98993.75;;;18.55;96.52
42289;BME280;30230;47.520;19.016;2023-06-26T05:08:23;98995.16;;;18.58;95.21
42289;BME280;30230;47.520;19.016;2023-06-26T05:10:24;98997.91;;;18.63;95.17
42289;BME280;30230;47.520;19.016;2023-06-26T05:12:24;99007.84;;;18.69;94.51
42289;BME280;30230;47.520;19.016;2023-06-26T05:14:24;98999.66;;;18.74;93.85
42289;BME280;30230;47.520;19.016;2023-06-26T05:16:24;98995.88;;;18.80;92.65
42289;BME280;30230;47.520;19.016;2023-06-26T05:18:25;99008.25;;;18.88;92.26
42289;BME280;30230;47.520;19.016;2023-06-26T05:20:25;98998.16;;;18.93;91.61
42289;BME280;30230;47.520;19.016;2023-06-26T05:22:25;98997.91;;;19.00;91.15
42289;BME280;30230;47.520;19.016;2023-06-26T05:24:26;98998.47;;;19.07;89.76
42289;BME280;30230;47.520;19.016;2023-06-26T05:26:26;99004.56;;;19.14;88.20
42289;BME280;30230;47.520;19.016;2023-06-26T05:28:27;98998.84;;;19.21;88.75
42289;BME280;30230;47.520;19.016;2023-06-26T05:30:27;99003.81;;;19.29;88.10
42289;BME280;30230;47.520;19.016;2023-06-26T05:32:28;98992.88;;;19.34;88.11
42289;BME280;30230;47.520;19.016;2023-06-26T05:34:29;99000.56;;;19.42;87.82
42289;BME280;30230;47.520;19.016;2023-06-26T05:36:29;98996.75;;;19.48;88.00
42289;BME280;30230;47.520;19.016;2023-06-26T05:38:33;99000.91;;;19.56;88.12
42289;BME280;30230;47.520;19.016;2023-06-26T05:40:33;98997.13;;;19.62;88.96
42289;BME280;30230;47.520;19.016;2023-06-26T05:42:34;99000.69;;;19.68;89.03
42289;BME280;30230;47.520;19.016;2023-06-26T05:44:35;98997.16;;;19.77;85.50
42289;BME280;30230;47.520;19.016;2023-06-26T05:46:35;98993.34;;;19.84;83.93
42289;BME280;30230;47.520;19.016;2023-06-26T05:48:35;98999.66;;;19.94;81.44
42289;BME280;30230;47.520;19.016;2023-06-26T05:50:36;99004.09;;;20.06;80.89
42289;BME280;30230;47.520;19.016;2023-06-26T05:52:36;99002.44;;;20.15;78.13
42289;BME280;30230;47.520;19.016;2023-06-26T05:54:37;99002.19;;;20.21;78.21
42289;BME280;30230;47.520;19.016;2023-06-26T05:56:37;98991.22;;;20.26;78.22
42289;BME280;30230;47.520;19.016;2023-06-26T05:58:37;98999.44;;;20.32;77.56
42289;BME280;30230;47.520;19.016;2023-06-26T06:00:41;98993.97;;;20.37;78.06
42289;BME280;30230;47.520;19.016;2023-06-26T06:02:41;98999.69;;;20.45;79.20
42289;BME280;30230;47.520;19.016;2023-06-26T06:04:42;99001.38;;;20.51;75.50
42289;BME280;30230;47.520;19.016;2023-06-26T06:06:42;99001.38;;;20.57;75.28
42289;BME280;30230;47.520;19.016;2023-06-26T06:08:43;98996.69;;;20.62;76.48
42289;BME280;30230;47.520;19.016;2023-06-26T06:10:43;98998.38;;;20.68;78.71
42289;BME280;30230;47.520;19.016;2023-06-26T06:12:43;98993.94;;;20.77;78.47
42289;BME280;30230;47.520;19.016;2023-06-26T06:14:43;98993.66;;;20.84;78.35
42289;BME280;30230;47.520;19.016;2023-06-26T06:16:44;99005.47;;;20.90;77.80
42289;BME280;30230;47.520;19.016;2023-06-26T06:18:44;98997.22;;;20.95;78.29
42289;BME280;30230;47.520;19.016;2023-06-26T06:20:44;98993.91;;;20.98;78.56
42289;BME280;30230;47.520;19.016;2023-06-26T06:22:45;99001.56;;;21.06;77.62
42289;BME280;30230;47.520;19.016;2023-06-26T06:24:45;99004.59;;;21.15;75.39
42289;BME280;30230;47.520;19.016;2023-06-26T06:26:45;99003.16;;;21.27;71.16
42289;BME280;30230;47.520;19.016;2023-06-26T06:28:46;99002.06;;;21.33;69.31
42289;BME280;30230;47.520;19.016;2023-06-26T06:30:46;98997.94;;;21.41;68.34
42289;BME280;30230;47.520;19.016;2023-06-26T06:32:47;99005.06;;;21.42;70.53
42289;BME280;30230;47.520;19.016;2023-06-26T06:34:50;99000.06;;;21.49;70.19
42289;BME280;30230;47.520;19.016;2023-06-26T06:36:50;98998.97;;;21.55;69.09
42289;BME280;30230;47.520;19.016;2023-06-26T06:38:50;98997.03;;;21.56;68.04
42289;BME280;30230;47.520;19.016;2023-06-26T06:40:51;99002.47;;;21.71;72.85
42289;BME280;30230;47.520;19.016;2023-06-26T06:42:51;98994.41;;;21.80;72.49
42289;BME280;30230;47.520;19.016;2023-06-26T06:44:52;98999.88;;;21.85;68.16
42289;BME280;30230;47.520;19.016;2023-06-26T06:46:52;99000.38;;;21.97;68.08
42289;BME280;30230;47.520;19.016;2023-06-26T06:48:53;99005.22;;;22.16;66.96
42289;BME280;30230;47.520;19.016;2023-06-26T06:50:53;99010.16;;;22.19;67.28
42289;BME280;30230;47.520;19.016;2023-06-26T06:52:53;99009.31;;;22.23;67.77
42289;BME280;30230;47.520;19.016;2023-06-26T06:54:54;99010.56;;;22.36;65.61
42289;BME280;30230;47.520;19.016;2023-06-26T06:56:55;99003.41;;;22.40;66.89
42289;BME280;30230;47.520;19.016;2023-06-26T06:58:55;99007.44;;;22.48;66.37
42289;BME280;30230;47.520;19.016;2023-06-26T07:00:55;99004.59;;;22.58;66.24
42289;BME280;30230;47.520;19.016;2023-06-26T07:02:55;99004.50;;;22.68;67.38
42289;BME280;30230;47.520;19.016;2023-06-26T07:04:56;99003.03;;;22.81;68.24
42289;BME280;30230;47.520;19.016;2023-06-26T07:06:57;99008.47;;;22.91;66.50
42289;BME280;30230;47.520;19.016;2023-06-26T07:08:57;98997.34;;;23.01;67.24
42289;BME280;30230;47.520;19.016;2023-06-26T07:10:57;99004.91;;;23.14;67.15
42289;BME280;30230;47.520;19.016;2023-06-26T07:12:57;99005.34;;;23.27;63.47
42289;BME280;30230;47.520;19.016;2023-06-26T07:14:58;99012.94;;;23.35;61.30
42289;BME280;30230;47.520;19.016;2023-06-26T07:16:58;99002.91;;;23.44;60.38
42289;BME280;30230;47.520;19.016;2023-06-26T07:18:58;99003.97;;;23.48;60.61
42289;BME280;30230;47.520;19.016;2023-06-26T07:20:59;99004.47;;;23.50;58.55
42289;BME280;30230;47.520;19.016;2023-06-26T07:22:59;99007.06;;;23.65;62.00
42289;BME280;30230;47.520;19.016;2023-06-26T07:24:59;99007.41;;;23.83;64.61
42289;BME280;30230;47.520;19.016;2023-06-26T07:26:59;99002.84;;;23.92;62.76
42289;BME280;30230;47.520;19.016;2023-06-26T07:29:00;99010.47;;;24.00;58.71
42289;BME280;30230;47.520;19.016;2023-06-26T07:31:01;99006.97;;;23.95;59.48
42289;BME280;30230;47.520;19.016;2023-06-26T07:33:01;99005.09;;;24.09;58.40
42289;BME280;30230;47.520;19.016;2023-06-26T07:35:01;99007.31;;;24.26;58.64
42289;BME280;30230;47.520;19.016;2023-06-26T07:37:02;99002.72;;;24.40;55.80
42289;BME280;30230;47.520;19.016;2023-06-26T07:39:02;99000.38;;;24.47;58.05
42289;BME280;30230;47.520;19.016;2023-06-26T07:41:02;99002.06;;;24.62;57.94
42289;BME280;30230;47.520;19.016;2023-06-26T07:43:03;98993.72;;;24.81;55.07
42289;BME280;30230;47.520;19.016;2023-06-26T07:45:03;98996.38;;;24.86;61.24
42289;BME280;30230;47.520;19.016;2023-06-26T07:47:10;98996.19;;;24.96;58.38
42289;BME280;30230;47.520;19.016;2023-06-26T07:49:11;98993.47;;;25.10;58.65
42289;BME280;30230;47.520;19.016;2023-06-26T07:51:11;98997.91;;;25.25;56.98
42289;BME280;30230;47.520;19.016;2023-06-26T07:53:12;99001.88;;;25.32;56.75
42289;BME280;30230;47.520;19.016;2023-06-26T07:55:12;99001.88;;;25.46;58.72
42289;BME280;30230;47.520;19.016;2023-06-26T07:57:12;98999.22;;;25.55;59.71
42289;BME280;30230;47.520;19.016;2023-06-26T07:59:12;99003.63;;;25.69;58.21
42289;BME280;30230;47.520;19.016;2023-06-26T08:01:14;99003.81;;;25.87;60.22
42289;BME280;30230;47.520;19.016;2023-06-26T08:03:14;98999.41;;;25.86;54.63
42289;BME280;30230;47.520;19.016;2023-06-26T08:05:15;99001.47;;;25.80;51.47
42289;BME280;30230;47.520;19.016;2023-06-26T08:07:15;98998.91;;;25.70;52.91
42289;BME280;30230;47.520;19.016;2023-06-26T08:09:16;99008.44;;;25.50;52.22
42289;BME280;30230;47.520;19.016;2023-06-26T08:11:16;98998.63;;;25.44;52.22
42289;BME280;30230;47.520;19.016;2023-06-26T08:13:16;99004.22;;;25.66;54.27
42289;BME280;30230;47.520;19.016;2023-06-26T08:15:16;98997.47;;;25.86;51.34
42289;BME280;30230;47.520;19.016;2023-06-26T08:17:17;99000.19;;;26.00;51.40
42289;BME280;30230;47.520;19.016;2023-06-26T08:19:18;99000.66;;;26.16;51.31
42289;BME280;30230;47.520;19.016;2023-06-26T08:21:18;99006.59;;;25.59;51.39
42289;BME280;30230;47.520;19.016;2023-06-26T08:23:18;99005.00;;;24.98;51.40
42289;BME280;30230;47.520;19.016;2023-06-26T08:25:19;99004.03;;;24.75;54.76
42289;BME280;30230;47.520;19.016;2023-06-26T08:27:19;99007.31;;;25.24;52.85
42289;BME280;30230;47.520;19.016;2023-06-26T08:29:19;98995.00;;;25.57;50.87
42289;BME280;30230;47.520;19.016;2023-06-26T08:31:19;99004.06;;;25.99;53.74
42289;BME280;30230;47.520;19.016;2023-06-26T08:33:20;99001.88;;;25.46;53.39
42289;BME280;30230;47.520;19.016;2023-06-26T08:35:20;99001.34;;;25.16;57.22
42289;BME280;30230;47.520;19.016;2023-06-26T08:37:21;98998.63;;;24.84;54.26
42289;BME280;30230;47.520;19.016;2023-06-26T08:39:21;99003.47;;;24.59;58.05
42289;BME280;30230;47.520;19.016;2023-06-26T08:41:21;99002.63;;;24.45;55.20
42289;BME280;30230;47.520;19.016;2023-06-26T08:43:22;99002.09;;;24.24;61.62
42289;BME280;30230;47.520;19.016;2023-06-26T08:45:22;99007.56;;;24.10;62.66
42289;BME280;30230;47.520;19.016;2023-06-26T08:47:22;98995.97;;;24.79;62.31
42289;BME280;30230;47.520;19.016;2023-06-26T08:49:32;98994.81;;;25.40;55.13
42289;BME280;30230;47.520;19.016;2023-06-26T08:51:34;98993.66;;;25.96;52.43
42289;BME280;30230;47.520;19.016;2023-06-26T08:53:57;98993.75;;;26.27;49.96
42289;BME280;30230;47.520;19.016;2023-06-26T08:55:57;98998.97;;;26.51;47.89
42289;BME280;30230;47.520;19.016;2023-06-26T08:57:57;98996.38;;;26.77;48.74
42289;BME280;30230;47.520;19.016;2023-06-26T08:59:58;98990.28;;;26.89;46.66
42289;BME280;30230;47.520;19.016;2023-06-26T09:01:58;98989.53;;;27.06;46.99
42289;BME280;30230;47.520;19.016;2023-06-26T09:03:58;98989.13;;;27.21;47.18
42289;BME280;30230;47.520;19.016;2023-06-26T09:05:59;98989.03;;;27.35;46.70
42289;BME280;30230;47.520;19.016;2023-06-26T09:07:59;98987.13;;;27.52;47.79
42289;BME280;30230;47.520;19.016;2023-06-26T09:09:59;98984.22;;;27.66;46.34
42289;BME280;30230;47.520;19.016;2023-06-26T09:12:01;98993.47;;;27.53;49.18
42289;BME280;30230;47.520;19.016;2023-06-26T09:14:01;99000.34;;;27.64;47.55
42289;BME280;30230;47.520;19.016;2023-06-26T09:16:07;98994.88;;;27.02;49.08
42289;BME280;30230;47.520;19.016;2023-06-26T09:18:08;98994.41;;;26.46;51.92
42289;BME280;30230;47.520;19.016;2023-06-26T09:20:09;99000.34;;;26.17;52.98
42289;BME280;30230;47.520;19.016;2023-06-26T09:22:13;98989.59;;;25.52;53.64
42289;BME280;30230;47.520;19.016;2023-06-26T09:24:14;98994.81;;;25.26;58.57
42289;BME280;30230;47.520;19.016;2023-06-26T09:26:15;98996.63;;;25.03;57.65
42289;BME280;30230;47.520;19.016;2023-06-26T09:28:15;98998.63;;;24.84;61.16
42289;BME280;30230;47.520;19.016;2023-06-26T09:30:19;98989.00;;;24.67;59.43
42289;BME280;30230;47.520;19.016;2023-06-26T09:32:19;98998.56;;;24.56;61.94
42289;BME280;30230;47.520;19.016;2023-06-26T09:34:19;99003.16;;;24.47;66.85
42289;BME280;30230;47.520;19.016;2023-06-26T09:36:20;98991.69;;;24.40;63.84
42289;BME280;30230;47.520;19.016;2023-06-26T09:38:21;98994.56;;;24.30;59.63
42289;BME280;30230;47.520;19.016;2023-06-26T09:40:22;98987.78;;;24.22;63.34
42289;BME280;30230;47.520;19.016;2023-06-26T09:42:22;98993.59;;;24.21;65.72
42289;BME280;30230;47.520;19.016;2023-06-26T09:44:23;98993.91;;;24.19;62.64
42289;BME280;30230;47.520;19.016;2023-06-26T09:46:24;98987.13;;;24.11;58.65
42289;BME280;30230;47.520;19.016;2023-06-26T09:48:24;98982.88;;;24.19;60.39
42289;BME280;30230;47.520;19.016;2023-06-26T09:50:25;98984.63;;;24.29;61.73
42289;BME280;30230;47.520;19.016;2023-06-26T09:52:27;98987.31;;;24.34;62.62
42289;BME280;30230;47.520;19.016;2023-06-26T09:54:30;98981.38;;;24.92;59.74
42289;BME280;30230;47.520;19.016;2023-06-26T09:56:32;98979.50;;;25.84;57.86
42289;BME280;30230;47.520;19.016;2023-06-26T09:58:32;98987.41;;;26.49;52.14
42289;BME280;30230;47.520;19.016;2023-06-26T10:00:33;98982.13;;;26.92;52.52
42289;BME280;30230;47.520;19.016;2023-06-26T10:02:33;98978.38;;;26.88;49.98
42289;BME280;30230;47.520;19.016;2023-06-26T10:04:37;98976.53;;;26.53;51.23
42289;BME280;30230;47.520;19.016;2023-06-26T10:06:42;98982.50;;;26.10;53.69
42289;BME280;30230;47.520;19.016;2023-06-26T10:08:45;98977.50;;;25.76;55.96
42289;BME280;30230;47.520;19.016;2023-06-26T10:10:45;98985.72;;;25.39;55.26
42289;BME280;30230;47.520;19.016;2023-06-26T10:12:47;98974.66;;;25.26;57.60
42289;BME280;30230;47.520;19.016;2023-06-26T10:14:48;98980.66;;;25.00;59.13
42289;BME280;30230;47.520;19.016;2023-06-26T10:16:49;98980.75;;;24.81;63.82
42289;BME280;30230;47.520;19.016;2023-06-26T10:19:01;98977.53;;;24.74;59.60
42289;BME280;30230;47.520;19.016;2023-06-26T10:21:02;98975.78;;;24.64;59.39
42289;BME280;30230;47.520;19.016;2023-06-26T10:23:04;98968.53;;;24.68;60.11
42289;BME280;30230;47.520;19.016;2023-06-26T10:25:06;98964.22;;;24.62;61.56
42289;BME280;30230;47.520;19.016;2023-06-26T10:27:14;98963.81;;;24.55;61.43
42289;BME280;30230;47.520;19.016;2023-06-26T10:29:15;98959.91;;;24.56;60.98
42289;BME280;30230;47.520;19.016;2023-06-26T10:31:16;98970.78;;;24.66;57.88